Time;durP1;ratioP1;P1;durP2;ratioP2;P2;SDS_P1;SDS_P2;PMS_P1;PMS_P2;Temp;Humidity;BMP_temperature;BMP_pressure;BME280_temperature;BME280_humidity;BME280_pressure;Samples;Min_cycle;Max_cycle;Signal;HPM_P1;HPM_P2
2022/01/07 00:00:25;;;;;;;;;10.00;9.25;;;;;-149.69;100.00;58464.25;6240810;22;45436;-92
2022/01/07 00:02:54;;;;;;;;;11.50;11.50;;;;;-149.69;100.00;58464.25;6239651;22;45480;-92
2022/01/07 00:05:20;;;;;;;;;14.25;10.75;;;;;-149.69;100.00;58464.25;6214372;22;47138;-93
2022/01/07 00:07:46;;;;;;;;;16.50;11.50;;;;;-149.69;100.00;58464.25;6244462;22;45300;-93
2022/01/07 00:10:14;;;;;;;;;10.00;10.00;;;;;-149.69;100.00;58464.25;6217879;22;45689;-93
2022/01/07 00:12:40;;;;;;;;;12.00;10.67;;;;;-149.69;100.00;58464.25;6251162;22;44832;-93
2022/01/07 00:15:06;;;;;;;;;16.00;10.00;;;;;-149.69;100.00;58464.25;6245684;22;47605;-93
2022/01/07 00:17:32;;;;;;;;;10.67;10.67;;;;;-149.69;100.00;58464.25;6250068;22;45140;-93
2022/01/07 00:19:58;;;;;;;;;11.00;11.00;;;;;-149.69;100.00;58464.25;6222807;22;45506;-93
2022/01/07 00:22:23;;;;;;;;;10.00;10.00;;;;;-149.69;100.00;58464.25;6239906;22;45176;-93
2022/01/07 00:25:16;;;;;;;;;12.50;10.25;;;;;-149.69;100.00;58464.25;6247155;22;48264;-93
2022/01/07 00:27:42;;;;;;;;;9.67;9.67;;;;;-149.69;100.00;58464.25;6216073;22;45311;-93
2022/01/07 00:30:10;;;;;;;;;13.25;11.25;;;;;-149.69;100.00;58464.25;6248868;22;45299;-93
2022/01/07 00:32:36;;;;;;;;;9.25;8.00;;;;;-149.69;100.00;58464.25;6214039;22;45617;-93
2022/01/07 00:35:01;;;;;;;;;10.75;10.00;;;;;-149.69;100.00;58464.25;6214464;22;46883;-92
2022/01/07 00:37:27;;;;;;;;;9.67;9.00;;;;;-149.69;100.00;58464.25;6239295;22;45542;-92
2022/01/07 00:39:52;;;;;;;;;10.00;10.00;;;;;-149.69;100.00;58464.25;6242003;22;45255;-92
2022/01/07 00:42:18;;;;;;;;;13.25;7.00;;;;;-149.69;100.00;58464.25;6240118;22;45263;-93
2022/01/07 00:44:44;;;;;;;;;10.75;9.00;;;;;-149.69;100.00;58464.25;6239313;22;46993;-92
2022/01/07 00:47:10;;;;;;;;;7.00;7.00;;;;;-149.69;100.00;58464.25;6239327;22;45246;-94
2022/01/07 00:49:36;;;;;;;;;10.25;10.25;;;;;-149.69;100.00;58464.25;6241331;22;45295;-93
2022/01/07 00:52:01;;;;;;;;;9.33;9.00;;;;;-149.69;100.00;58464.25;6246464;22;45404;-93
2022/01/07 00:54:28;;;;;;;;;14.00;9.00;;;;;-149.69;100.00;58464.25;6241086;22;47184;-93
2022/01/07 00:56:53;;;;;;;;;11.00;9.00;;;;;-149.69;100.00;58464.25;6215481;22;45678;-93
2022/01/07 00:59:19;;;;;;;;;12.33;11.33;;;;;-149.69;100.00;58464.25;6245120;22;45301;-93
2022/01/07 01:01:45;;;;;;;;;13.00;11.00;;;;;-149.69;100.00;58464.25;6270677;22;45351;-92
2022/01/07 01:04:10;;;;;;;;;9.50;8.75;;;;;-149.69;100.00;58464.25;6270549;22;46917;-93
2022/01/07 01:06:38;;;;;;;;;15.00;11.00;;;;;-149.69;100.00;58464.25;6271186;22;44685;-93
2022/01/07 01:09:26;;;;;;;;;11.25;11.25;;;;;-149.69;100.00;58464.25;6270956;22;44766;-93
2022/01/07 01:12:11;;;;;;;;;8.67;8.67;;;;;-149.69;100.00;58464.25;6229809;22;45272;-93
2022/01/07 01:14:37;;;;;;;;;13.25;7.00;;;;;-149.69;100.00;58464.25;6184111;22;47235;-93
2022/01/07 01:17:04;;;;;;;;;10.33;9.33;;;;;-149.69;100.00;58464.25;6209029;22;45522;-93
2022/01/07 01:19:29;;;;;;;;;13.33;11.67;;;;;-149.69;100.00;58464.25;6210771;22;45292;-93
2022/01/07 01:21:55;;;;;;;;;10.67;10.67;;;;;-149.69;100.00;58464.25;6210001;22;45361;-93
2022/01/07 01:24:20;;;;;;;;;10.33;10.33;;;;;-149.69;100.00;58464.25;6209177;22;47104;-92
2022/01/07 01:26:47;;;;;;;;;10.67;9.00;;;;;-149.69;100.00;58464.25;6209068;22;45299;-93
2022/01/07 01:29:12;;;;;;;;;10.00;8.33;;;;;-149.69;100.00;58464.25;6209135;22;45318;-93
2022/01/07 01:31:38;;;;;;;;;13.33;9.33;;;;;-149.69;100.00;58464.25;6209361;22;45476;-93
2022/01/07 01:34:04;;;;;;;;;14.00;10.33;;;;;-149.69;100.00;58464.25;6209786;22;47457;-93
2022/01/07 01:36:30;;;;;;;;;10.67;9.00;;;;;-149.69;100.00;58464.25;6209216;22;45360;-93
2022/01/07 01:38:56;;;;;;;;;10.33;10.33;;;;;-149.69;100.00;58464.25;6209520;22;45370;-93
2022/01/07 01:41:21;;;;;;;;;9.33;7.67;;;;;-149.69;100.00;58464.25;6210382;22;45558;-94
2022/01/07 01:43:48;;;;;;;;;10.33;10.00;;;;;-149.69;100.00;58464.25;6231892;22;47195;-92
2022/01/07 01:46:16;;;;;;;;;12.00;11.00;;;;;-149.69;100.00;58464.25;6240759;22;45274;-93
2022/01/07 01:48:42;;;;;;;;;16.25;9.00;;;;;-149.69;100.00;58464.25;6240518;22;45449;-93
2022/01/07 01:51:08;;;;;;;;;12.00;9.00;;;;;-149.69;100.00;58464.25;6215368;22;45461;-93
2022/01/07 01:53:33;;;;;;;;;9.67;9.33;;;;;-149.69;100.00;58464.25;6240888;22;47044;-93
2022/01/07 01:55:59;;;;;;;;;12.00;9.00;;;;;-149.69;100.00;58464.25;6241179;22;45366;-91
2022/01/07 01:58:24;;;;;;;;;10.00;7.67;;;;;-149.69;100.00;58464.25;6241881;22;45280;-93
2022/01/07 02:00:50;;;;;;;;;12.25;10.25;;;;;-149.69;100.00;58464.25;6242561;22;45438;-93
2022/01/07 02:03:15;;;;;;;;;9.00;8.67;;;;;-149.69;100.00;58464.25;6243442;22;47172;-93
2022/01/07 02:05:41;;;;;;;;;9.67;8.33;;;;;-149.69;100.00;58464.25;6241377;22;45753;-92
2022/01/07 02:08:08;;;;;;;;;10.00;9.00;;;;;-149.69;100.00;58464.25;6241829;22;45343;-93
2022/01/07 02:10:33;;;;;;;;;9.33;9.00;;;;;-149.69;100.00;58464.25;6242608;22;45237;-93
2022/01/07 02:12:58;;;;;;;;;9.25;9.25;;;;;-149.69;100.00;58464.25;6239645;22;48267;-91
2022/01/07 02:15:24;;;;;;;;;10.00;10.00;;;;;-149.69;100.00;58464.25;6240188;22;45306;-93
2022/01/07 02:17:51;;;;;;;;;11.00;10.25;;;;;-149.69;100.00;58464.25;6239961;22;45287;-92
2022/01/07 02:20:20;;;;;;;;;12.75;9.75;;;;;-149.69;100.00;58464.25;6241065;22;45317;-93
2022/01/07 02:22:45;;;;;;;;;9.50;9.50;;;;;-149.69;100.00;58464.25;6214682;22;47245;-94
2022/01/07 02:25:12;;;;;;;;;11.00;9.25;;;;;-149.69;100.00;58464.25;6242733;22;45342;-91
2022/01/07 02:27:41;;;;;;;;;13.25;10.00;;;;;-149.69;100.00;58464.25;6239349;22;45603;-93
2022/01/07 02:30:10;;;;;;;;;10.00;10.00;;;;;-149.69;100.00;58464.25;6240654;22;45865;-93
2022/01/07 02:32:36;;;;;;;;;9.00;9.00;;;;;-149.69;100.00;58464.25;6214591;22;47965;-93
2022/01/07 02:35:03;;;;;;;;;11.33;9.67;;;;;-149.69;100.00;58464.25;6240768;22;45262;-93
2022/01/07 02:37:28;;;;;;;;;9.67;9.00;;;;;-149.69;100.00;58464.25;6240688;22;45184;-93
2022/01/07 02:39:54;;;;;;;;;9.25;8.25;;;;;-149.69;100.00;58464.25;6240529;22;45533;-93
2022/01/07 02:42:19;;;;;;;;;10.67;7.33;;;;;-149.69;100.00;58464.25;6239890;22;47303;-94
2022/01/07 02:44:45;;;;;;;;;11.00;10.33;;;;;-149.69;100.00;58464.25;6239946;22;45760;-93
2022/01/07 02:47:10;;;;;;;;;7.00;5.67;;;;;-149.69;100.00;58464.25;6240211;22;45303;-93
2022/01/07 02:49:35;;;;;;;;;7.00;7.00;;;;;-149.69;100.00;58464.25;6241124;22;45466;-92
2022/01/07 02:52:01;;;;;;;;;10.67;8.00;;;;;-149.69;100.00;58464.25;6240232;22;47133;-93
2022/01/07 02:54:27;;;;;;;;;6.33;6.00;;;;;-149.69;100.00;58464.25;6215235;22;45301;-93
2022/01/07 02:56:52;;;;;;;;;9.67;9.33;;;;;-149.69;100.00;58464.25;6240675;22;45455;-93
2022/01/07 02:59:18;;;;;;;;;5.67;5.33;;;;;-149.69;100.00;58464.25;6239662;22;45290;-92
2022/01/07 03:01:43;;;;;;;;;6.67;6.67;;;;;-149.69;100.00;58464.25;6241328;22;48056;-93
2022/01/07 03:04:09;;;;;;;;;8.33;6.67;;;;;-149.69;100.00;58464.25;6240788;22;45339;-93
2022/01/07 03:06:35;;;;;;;;;10.67;6.00;;;;;-149.69;100.00;58464.25;6240186;22;45394;-92
2022/01/07 03:09:01;;;;;;;;;7.67;6.67;;;;;-149.69;100.00;58464.25;6215212;22;45776;-93
2022/01/07 03:11:27;;;;;;;;;6.33;5.00;;;;;-149.69;100.00;58464.25;6215464;22;47197;-93
2022/01/07 03:13:52;;;;;;;;;8.67;7.33;;;;;-149.69;100.00;58464.25;6239941;22;45795;-93
2022/01/07 03:16:18;;;;;;;;;8.33;8.33;;;;;-149.69;100.00;58464.25;6215677;22;45286;-94
2022/01/07 03:18:43;;;;;;;;;10.67;9.00;;;;;-149.69;100.00;58464.25;6240682;22;45310;-93
2022/01/07 03:21:09;;;;;;;;;7.00;7.00;;;;;-149.69;100.00;58464.25;6241230;22;47022;-92
2022/01/07 03:23:36;;;;;;;;;8.67;8.67;;;;;-149.69;100.00;58464.25;6240735;22;45310;-93
2022/01/07 03:26:02;;;;;;;;;6.00;6.00;;;;;-149.69;100.00;58464.25;6240606;22;45413;-93
2022/01/07 03:28:28;;;;;;;;;9.67;8.33;;;;;-149.69;100.00;58464.25;6240003;22;45362;-93
2022/01/07 03:30:53;;;;;;;;;8.00;6.67;;;;;-149.69;100.00;58464.25;6241305;22;47157;-93
2022/01/07 03:33:19;;;;;;;;;7.25;6.00;;;;;-149.69;100.00;58464.25;6214874;22;45392;-93
2022/01/07 03:35:45;;;;;;;;;4.33;3.67;;;;;-149.69;100.00;58464.25;6241129;22;45393;-93
2022/01/07 03:38:11;;;;;;;;;8.67;5.33;;;;;-149.69;100.00;58464.25;6241547;22;45396;-93
2022/01/07 03:40:37;;;;;;;;;11.33;6.33;;;;;-149.69;100.00;58464.25;6241635;22;47913;-93
2022/01/07 03:43:02;;;;;;;;;5.67;5.67;;;;;-149.69;100.00;58464.25;6240355;22;45479;-93
2022/01/07 03:45:28;;;;;;;;;14.33;6.00;;;;;-149.69;100.00;58464.25;6240612;22;45252;-93
2022/01/07 03:47:54;;;;;;;;;7.00;6.00;;;;;-149.69;100.00;58464.25;6214770;22;45349;-92
2022/01/07 03:50:23;;;;;;;;;5.33;5.33;;;;;-149.69;100.00;58464.25;6240717;22;47176;-93
2022/01/07 03:52:48;;;;;;;;;6.00;6.00;;;;;-149.69;100.00;58464.25;6240785;22;45292;-93
2022/01/07 03:55:17;;;;;;;;;7.33;7.33;;;;;-149.69;100.00;58464.25;6240726;22;45325;-93
2022/01/07 03:57:42;;;;;;;;;7.67;7.00;;;;;-149.69;100.00;58464.25;6242308;22;45298;-93
2022/01/07 04:00:15;;;;;;;;;5.67;5.00;;;;;-149.69;100.00;58464.25;6240106;22;47124;-93
2022/01/07 04:02:41;;;;;;;;;9.33;7.33;;;;;-149.69;100.00;58464.25;6214836;22;45394;-93
2022/01/07 04:05:07;;;;;;;;;6.33;6.33;;;;;-149.69;100.00;58464.25;6214968;22;45318;-93
2022/01/07 04:07:33;;;;;;;;;7.67;6.00;;;;;-149.69;100.00;58464.25;6240206;22;45421;-93
2022/01/07 04:09:59;;;;;;;;;6.67;6.67;;;;;-149.69;100.00;58464.25;6240155;22;48213;-93
2022/01/07 04:12:25;;;;;;;;;7.67;5.00;;;;;-149.69;100.00;58464.25;6240241;22;45216;-91
2022/01/07 04:15:01;;;;;;;;;9.00;5.67;;;;;-149.69;100.00;58464.25;6240407;22;45241;-93
2022/01/07 04:17:27;;;;;;;;;8.33;5.67;;;;;-149.69;100.00;58464.25;6240742;22;45563;-93
2022/01/07 04:19:52;;;;;;;;;6.67;6.00;;;;;-149.69;100.00;58464.25;6240322;22;46896;-93
2022/01/07 04:22:17;;;;;;;;;6.67;6.67;;;;;-149.69;100.00;58464.25;6240513;22;45324;-93
2022/01/07 04:24:43;;;;;;;;;5.67;5.33;;;;;-149.69;100.00;58464.25;6241344;22;45283;-93
2022/01/07 04:27:08;;;;;;;;;8.00;5.67;;;;;-149.69;100.00;58464.25;6243688;22;45346;-93
2022/01/07 04:29:33;;;;;;;;;6.00;5.00;;;;;-149.69;100.00;58464.25;6241790;22;46913;-93
2022/01/07 04:31:59;;;;;;;;;5.00;3.00;;;;;-149.69;100.00;58464.25;6241924;22;45585;-93
2022/01/07 04:34:24;;;;;;;;;6.00;6.00;;;;;-149.69;100.00;58464.25;6242170;22;45368;-93
2022/01/07 04:36:49;;;;;;;;;5.67;5.00;;;;;-149.69;100.00;58464.25;6241766;22;45378;-92
2022/01/07 04:39:15;;;;;;;;;6.00;6.00;;;;;-149.69;100.00;58464.25;6243444;22;45631;-93
2022/01/07 04:41:40;;;;;;;;;5.33;5.00;;;;;-149.69;100.00;58464.25;6242813;22;45257;-93
2022/01/07 04:44:06;;;;;;;;;5.67;5.00;;;;;-149.69;100.00;58464.25;6263202;22;44764;-92
2022/01/07 04:46:31;;;;;;;;;6.00;6.00;;;;;-149.69;100.00;58464.25;6267949;22;44700;-93
2022/01/07 04:48:56;;;;;;;;;5.33;3.67;;;;;-149.69;100.00;58464.25;6271084;22;47110;-93
2022/01/07 04:51:22;;;;;;;;;7.00;5.00;;;;;-149.69;100.00;58464.25;6270038;22;44857;-94
2022/01/07 04:53:47;;;;;;;;;8.67;4.33;;;;;-149.69;100.00;58464.25;6244237;22;45302;-94
2022/01/07 04:56:12;;;;;;;;;7.67;5.33;;;;;-149.69;100.00;58464.25;6242320;22;45454;-93
2022/01/07 04:58:38;;;;;;;;;3.67;3.00;;;;;-149.69;100.00;58464.25;6242510;22;45337;-93
2022/01/07 05:01:03;;;;;;;;;3.00;3.00;;;;;-149.69;100.00;58464.25;6241708;22;45312;-93
2022/01/07 05:03:28;;;;;;;;;6.67;3.00;;;;;-149.69;100.00;58464.25;6216402;22;45244;-93
2022/01/07 05:06:06;;;;;;;;;7.33;5.67;;;;;-149.69;100.00;58464.25;6241376;22;45245;-93
2022/01/07 05:08:32;;;;;;;;;6.00;3.00;;;;;-149.69;100.00;58464.25;6240636;22;47890;-93
2022/01/07 05:10:57;;;;;;;;;5.67;2.33;;;;;-149.69;100.00;58464.25;6241150;22;46039;-94
2022/01/07 05:13:22;;;;;;;;;5.00;2.00;;;;;-149.69;100.00;58464.25;6241731;22;45418;-93
2022/01/07 05:15:47;;;;;;;;;3.00;3.00;;;;;-149.69;100.00;58464.25;6243774;22;45385;-93
2022/01/07 05:18:13;;;;;;;;;3.00;3.00;;;;;-149.69;100.00;58464.25;6241503;22;47290;-92
2022/01/07 05:20:38;;;;;;;;;2.00;2.00;;;;;-149.69;100.00;58464.25;6240537;22;45380;-93
2022/01/07 05:23:03;;;;;;;;;4.00;3.33;;;;;-149.69;100.00;58464.25;6241625;22;45502;-93
2022/01/07 05:25:34;;;;;;;;;3.00;3.00;;;;;-149.69;100.00;58464.25;6242017;22;45417;-93
2022/01/07 05:27:59;;;;;;;;;5.00;5.00;;;;;-149.69;100.00;58464.25;6241073;22;48079;-93
2022/01/07 05:30:24;;;;;;;;;5.67;4.33;;;;;-149.69;100.00;58464.25;6243551;22;45223;-93
2022/01/07 05:32:50;;;;;;;;;2.00;2.00;;;;;-149.69;100.00;58464.25;6243110;22;45205;-93
2022/01/07 05:35:15;;;;;;;;;3.67;2.67;;;;;-149.69;100.00;58464.25;6242543;22;45164;-93
2022/01/07 05:37:40;;;;;;;;;5.33;3.00;;;;;-149.69;100.00;58464.25;6242777;22;46315;-93
2022/01/07 05:40:07;;;;;;;;;2.33;2.33;;;;;-149.69;100.00;58464.25;6241107;22;45312;-93
2022/01/07 05:42:32;;;;;;;;;3.67;3.67;;;;;-149.69;100.00;58464.25;6241901;22;45326;-94
2022/01/07 05:44:57;;;;;;;;;3.00;2.00;;;;;-149.69;100.00;58464.25;6241716;22;45343;-93
2022/01/07 05:47:23;;;;;;;;;5.67;2.00;;;;;-149.69;100.00;58464.25;6241299;22;48153;-93
2022/01/07 05:49:48;;;;;;;;;11.00;5.00;;;;;-149.69;100.00;58464.25;6241275;22;45256;-93
2022/01/07 05:52:13;;;;;;;;;2.67;2.67;;;;;-149.69;100.00;58464.25;6240893;22;45545;-93
2022/01/07 05:54:39;;;;;;;;;3.67;3.67;;;;;-149.69;100.00;58464.25;6241296;22;45530;-93
2022/01/07 05:57:06;;;;;;;;;5.33;5.00;;;;;-149.69;100.00;58464.25;6240908;22;46914;-92
2022/01/07 05:59:31;;;;;;;;;5.00;3.00;;;;;-149.69;100.00;58464.25;6240806;22;45866;-93
2022/01/07 06:01:56;;;;;;;;;4.33;2.00;;;;;-149.69;100.00;58464.25;6241701;22;45366;-93
2022/01/07 06:04:21;;;;;;;;;7.00;5.00;;;;;-149.69;100.00;58464.25;6241202;22;45389;-93
2022/01/07 06:06:47;;;;;;;;;2.00;2.00;;;;;-149.69;100.00;58464.25;6240290;22;48314;-94
2022/01/07 06:09:12;;;;;;;;;5.00;2.00;;;;;-149.69;100.00;58464.25;6241038;22;45835;-93
2022/01/07 06:11:37;;;;;;;;;6.00;6.00;;;;;-149.69;100.00;58464.25;6241073;22;45282;-93
2022/01/07 06:14:03;;;;;;;;;6.00;4.33;;;;;-149.69;100.00;58464.25;6240845;22;45743;-93
2022/01/07 06:16:28;;;;;;;;;6.67;5.67;;;;;-149.69;100.00;58464.25;6241181;22;47104;-93
2022/01/07 06:21:20;;;;;;;;;4.67;4.67;;;;;-149.69;100.00;58464.25;6242688;22;45374;-93
2022/01/07 06:23:46;;;;;;;;;5.00;5.00;;;;;-149.69;100.00;58464.25;6242519;22;45458;-93
2022/01/07 06:26:11;;;;;;;;;5.50;5.50;;;;;-149.69;100.00;58464.25;6241220;22;48058;-93
2022/01/07 06:28:36;;;;;;;;;2.33;2.33;;;;;-149.69;100.00;58464.25;6240140;22;45600;-93
2022/01/07 06:31:02;;;;;;;;;5.67;4.33;;;;;-149.69;100.00;58464.25;6241374;22;45595;-93
2022/01/07 06:33:27;;;;;;;;;5.00;5.00;;;;;-149.69;100.00;58464.25;6241911;22;45468;-93
2022/01/07 06:35:52;;;;;;;;;5.33;5.33;;;;;-149.69;100.00;58464.25;6240585;22;46846;-93
2022/01/07 06:38:17;;;;;;;;;4.33;4.33;;;;;-149.69;100.00;58464.25;6242941;22;45804;-93
2022/01/07 06:40:43;;;;;;;;;3.00;3.00;;;;;-149.69;100.00;58464.25;6240879;22;45562;-93
2022/01/07 06:43:08;;;;;;;;;2.33;2.33;;;;;-149.69;100.00;58464.25;6245803;22;45355;-93
2022/01/07 06:45:34;;;;;;;;;6.33;6.33;;;;;-149.69;100.00;58464.25;6240324;22;48178;-93
2022/01/07 06:47:59;;;;;;;;;3.67;3.67;;;;;-149.69;100.00;58464.25;6240287;22;45515;-93
2022/01/07 06:50:24;;;;;;;;;6.33;4.33;;;;;-149.69;100.00;58464.25;6240994;22;45421;-92
2022/01/07 06:52:50;;;;;;;;;5.00;3.00;;;;;-149.69;100.00;58464.25;6240763;22;45645;-93
2022/01/07 06:55:15;;;;;;;;;3.00;2.33;;;;;-149.69;100.00;58464.25;6240562;22;46902;-92
2022/01/07 06:57:40;;;;;;;;;3.67;2.00;;;;;-149.69;100.00;58464.25;6240300;22;45559;-93
2022/01/07 07:00:07;;;;;;;;;6.00;3.00;;;;;-149.69;100.00;58464.25;6241248;22;45298;-94
2022/01/07 07:02:32;;;;;;;;;3.33;3.00;;;;;-149.69;100.00;58464.25;6240875;22;45346;-93
2022/01/07 07:04:58;;;;;;;;;7.67;3.00;;;;;-149.69;100.00;58464.25;6239979;22;47877;-93
2022/01/07 07:07:23;;;;;;;;;3.67;3.00;;;;;-149.69;100.00;58464.25;6240119;22;45554;-93
2022/01/07 07:09:48;;;;;;;;;10.00;4.33;;;;;-149.69;100.00;58464.25;6241109;22;45192;-93
2022/01/07 07:12:13;;;;;;;;;3.67;3.00;;;;;-149.69;100.00;58464.25;6240839;22;45564;-92
2022/01/07 07:14:39;;;;;;;;;9.33;2.67;;;;;-149.69;100.00;58464.25;6240434;22;47941;-93
2022/01/07 07:17:05;;;;;;;;;5.67;5.67;;;;;-149.69;100.00;58464.25;6243093;22;45300;-93
2022/01/07 07:19:31;;;;;;;;;3.00;3.00;;;;;-149.69;100.00;58464.25;6240280;22;45319;-93
2022/01/07 07:21:57;;;;;;;;;5.00;5.00;;;;;-149.69;100.00;58464.25;6240525;22;45292;-93
2022/01/07 07:24:22;;;;;;;;;3.67;3.67;;;;;-149.69;100.00;58464.25;6241205;22;47843;-93
2022/01/07 07:26:47;;;;;;;;;4.33;4.33;;;;;-149.69;100.00;58464.25;6242525;22;45267;-95
2022/01/07 07:29:12;;;;;;;;;5.00;2.67;;;;;-149.69;100.00;58464.25;6244799;22;45312;-96
2022/01/07 07:31:41;;;;;;;;;7.00;3.67;;;;;-149.69;100.00;58464.25;6240201;22;45484;-94
2022/01/07 07:36:33;;;;;;;;;5.00;3.00;;;;;-149.69;100.00;58464.25;6247187;22;45165;-96
2022/01/07 07:38:58;;;;;;;;;5.00;5.00;;;;;-149.69;100.00;58464.25;6232854;22;45196;-96
2022/01/07 07:41:24;;;;;;;;;5.00;5.00;;;;;-149.69;100.00;58464.25;6190619;22;45263;-90
2022/01/07 07:43:50;;;;;;;;;6.00;6.00;;;;;-149.69;100.00;58464.25;6188626;22;47929;-95
2022/01/07 07:48:51;;;;;;;;;4.33;4.33;;;;;-149.69;100.00;58464.25;6158143;22;2038204;-95
2022/01/07 07:51:20;;;;;;;;;6.00;4.33;;;;;-149.69;100.00;58464.25;6215519;22;45235;-96
2022/01/07 07:53:46;;;;;;;;;7.33;7.00;;;;;-149.69;100.00;58464.25;6240069;22;48401;-94
2022/01/07 07:56:14;;;;;;;;;9.33;7.00;;;;;-149.69;100.00;58464.25;6212417;22;45577;-92
2022/01/07 07:58:41;;;;;;;;;8.67;5.00;;;;;-149.69;100.00;58464.25;6211470;22;45208;-93
2022/01/07 08:01:06;;;;;;;;;11.00;8.00;;;;;-149.69;100.00;58464.25;6212689;22;45244;-92
2022/01/07 08:03:32;;;;;;;;;7.33;5.00;;;;;-149.69;100.00;58464.25;6213273;22;47423;-92
2022/01/07 08:05:58;;;;;;;;;6.33;5.33;;;;;-149.69;100.00;58464.25;6238410;22;45339;-93
2022/01/07 08:08:24;;;;;;;;;5.00;5.00;;;;;-149.69;100.00;58464.25;6240397;22;45303;-93
2022/01/07 08:10:53;;;;;;;;;5.33;3.00;;;;;-149.69;100.00;58464.25;6238609;22;45496;-93
2022/01/07 08:15:58;;;;;;;;;3.67;3.67;;;;;-149.69;100.00;58464.25;6240286;22;45386;-92
2022/01/07 08:18:29;;;;;;;;;8.00;4.33;;;;;-149.69;100.00;58464.25;6238587;22;45207;-94
2022/01/07 08:20:56;;;;;;;;;3.67;3.67;;;;;-149.69;100.00;58464.25;6214097;22;45213;-92
2022/01/07 08:23:23;;;;;;;;;4.67;4.67;;;;;-149.69;100.00;58464.25;6223690;22;48068;-93
2022/01/07 08:25:49;;;;;;;;;5.00;2.00;;;;;-149.69;100.00;58464.25;6225021;22;45297;-92
2022/01/07 08:28:18;;;;;;;;;2.33;2.33;;;;;-149.69;100.00;58464.25;6249674;22;45337;-93
2022/01/07 08:36:16;;;;;;;;;2.67;2.00;;;;;-149.69;100.00;58464.25;6254859;22;45192;-94
2022/01/07 08:38:43;;;;;;;;;4.00;2.00;;;;;-149.69;100.00;58464.25;6224833;22;45157;-94
2022/01/07 08:41:08;;;;;;;;;6.00;3.00;;;;;-149.69;100.00;58464.25;6248475;22;45567;-93
2022/01/07 08:43:34;;;;;;;;;2.00;1.33;;;;;-149.69;100.00;58464.25;6219917;22;46800;-94
2022/01/07 08:46:00;;;;;;;;;2.00;0.00;;;;;-149.69;100.00;58464.25;6243328;22;45353;-94
2022/01/07 08:48:27;;;;;;;;;1.33;1.00;;;;;-149.69;100.00;58464.25;6218062;22;45339;-93
2022/01/07 08:50:52;;;;;;;;;3.00;0.00;;;;;-149.69;100.00;58464.25;6235050;22;45769;-93
2022/01/07 08:53:20;;;;;;;;;0.00;0.00;;;;;-149.69;100.00;58464.25;6237835;22;46037;-94
2022/01/07 08:55:46;;;;;;;;;0.67;0.00;;;;;-149.69;100.00;58464.25;6237783;22;45180;-94
2022/01/07 08:58:11;;;;;;;;;2.00;0.00;;;;;-149.69;100.00;58464.25;6211098;22;45323;-93
2022/01/07 09:00:37;;;;;;;;;0.33;0.33;;;;;-149.69;100.00;58464.25;6217381;22;45496;-93
2022/01/07 09:03:03;;;;;;;;;1.00;1.00;;;;;-149.69;100.00;58464.25;6212615;22;53571;-93
2022/01/07 09:05:28;;;;;;;;;0.00;0.00;;;;;-149.69;100.00;58464.25;6209850;22;46057;-92
2022/01/07 09:07:53;;;;;;;;;3.00;1.00;;;;;-149.69;100.00;58464.25;6211517;22;45244;-90
2022/01/07 09:10:19;;;;;;;;;2.00;1.67;;;;;-149.69;100.00;58464.25;6242652;22;45238;-93
2022/01/07 09:12:45;;;;;;;;;1.00;1.00;;;;;-149.69;100.00;58464.25;6214141;22;48544;-91
2022/01/07 09:15:10;;;;;;;;;4.33;2.67;;;;;-149.69;100.00;58464.25;6238118;22;45251;-92
2022/01/07 09:17:36;;;;;;;;;5.00;0.33;;;;;-149.69;100.00;58464.25;6236045;22;45350;-92
2022/01/07 09:20:03;;;;;;;;;1.00;1.00;;;;;-149.69;100.00;58464.25;6212925;22;45437;-92
2022/01/07 09:22:28;;;;;;;;;1.00;1.00;;;;;-149.69;100.00;58464.25;6213294;22;47243;-91
2022/01/07 09:24:54;;;;;;;;;0.00;0.00;;;;;-149.69;100.00;58464.25;6213221;22;47571;-91
2022/01/07 09:27:19;;;;;;;;;0.00;0.00;;;;;-149.69;100.00;58464.25;6240323;22;45333;-92
2022/01/07 09:29:45;;;;;;;;;1.33;1.00;;;;;-149.69;100.00;58464.25;6210891;22;45484;-91
2022/01/07 09:32:11;;;;;;;;;0.67;0.67;;;;;-149.69;100.00;58464.25;6239704;22;47952;-92
2022/01/07 09:34:36;;;;;;;;;1.00;1.00;;;;;-149.69;100.00;58464.25;6240873;22;45307;-91
2022/01/07 09:37:03;;;;;;;;;1.00;1.00;;;;;-149.69;100.00;58464.25;6240238;22;45347;-91
2022/01/07 09:39:29;;;;;;;;;1.00;1.00;;;;;-149.69;100.00;58464.25;6212353;22;45643;-90
2022/01/07 09:41:54;;;;;;;;;0.00;0.00;;;;;-149.69;100.00;58464.25;6238019;22;48037;-90
2022/01/07 09:44:19;;;;;;;;;1.00;1.00;;;;;-149.69;100.00;58464.25;6245724;22;45503;-91
2022/01/07 09:46:45;;;;;;;;;2.67;1.00;;;;;-149.69;100.00;58464.25;6212025;22;45625;-91
2022/01/07 09:49:10;;;;;;;;;2.00;1.67;;;;;-149.69;100.00;58464.25;6239398;22;45372;-90
2022/01/07 09:51:37;;;;;;;;;1.33;1.00;;;;;-149.69;100.00;58464.25;6240123;22;45250;-90
2022/01/07 09:54:04;;;;;;;;;2.00;1.00;;;;;-149.69;100.00;58464.25;6238310;22;45263;-90
2022/01/07 09:56:29;;;;;;;;;3.67;3.00;;;;;-149.69;100.00;58464.25;6237661;22;45378;-90
2022/01/07 09:58:55;;;;;;;;;1.00;1.00;;;;;-149.69;100.00;58464.25;6238250;22;45552;-90
2022/01/07 10:01:22;;;;;;;;;1.67;1.67;;;;;-149.69;100.00;58464.25;6214427;22;47139;-90
2022/01/07 10:03:48;;;;;;;;;1.00;1.00;;;;;-149.69;100.00;58464.25;6236667;22;45270;-90
2022/01/07 10:06:21;;;;;;;;;0.67;0.67;;;;;-149.69;100.00;58464.25;6210923;22;45276;-90
2022/01/07 10:08:59;;;;;;;;;1.33;1.33;;;;;-149.69;100.00;58464.25;6237418;22;45663;-90
2022/01/07 10:11:25;;;;;;;;;2.67;2.00;;;;;-149.69;100.00;58464.25;6238283;22;47108;-91
2022/01/07 10:14:17;;;;;;;;;0.00;0.00;;;;;-149.69;100.00;58464.25;6211039;22;45271;-90
2022/01/07 10:16:54;;;;;;;;;1.00;1.00;;;;;-149.69;100.00;58464.25;6238780;22;45593;-90
2022/01/07 10:19:41;;;;;;;;;0.67;0.67;;;;;-149.69;100.00;58464.25;6238202;22;45231;-90
2022/01/07 10:22:10;;;;;;;;;2.00;2.00;;;;;-149.69;100.00;58464.25;6239449;22;47540;-94
2022/01/07 10:24:58;;;;;;;;;1.33;1.00;;;;;-149.69;100.00;58464.25;6214148;22;45375;-94
2022/01/07 10:27:26;;;;;;;;;2.00;2.00;;;;;-149.69;100.00;58464.25;6216164;22;45264;-95
2022/01/07 10:29:52;;;;;;;;;0.67;0.00;;;;;-149.69;100.00;58464.25;6214867;22;45457;-94
2022/01/07 10:32:38;;;;;;;;;1.00;1.00;;;;;-149.69;100.00;58464.25;6214062;22;48105;-93
2022/01/07 10:35:07;;;;;;;;;2.67;2.67;;;;;-149.69;100.00;58464.25;6239461;22;45453;-94
2022/01/07 10:37:34;;;;;;;;;2.67;2.67;;;;;-149.69;100.00;58464.25;6240165;22;45621;-94
2022/01/07 10:40:00;;;;;;;;;1.00;1.00;;;;;-149.69;100.00;58464.25;6215788;22;45420;-94
2022/01/07 10:42:27;;;;;;;;;2.00;1.00;;;;;-149.69;100.00;58464.25;6218518;22;46942;-93
2022/01/07 10:45:00;;;;;;;;;1.00;1.00;;;;;-149.69;100.00;58464.25;6242531;22;45341;-94
2022/01/07 10:47:28;;;;;;;;;5.00;3.00;;;;;-149.69;100.00;58464.25;6214274;22;45420;-94
2022/01/07 10:50:15;;;;;;;;;1.00;0.67;;;;;-149.69;100.00;58464.25;6213865;22;45393;-96
2022/01/07 10:52:41;;;;;;;;;0.00;0.00;;;;;-149.69;100.00;58464.25;6213524;22;48095;-95
2022/01/07 10:55:12;;;;;;;;;1.00;0.67;;;;;-149.69;100.00;58464.25;6213539;22;45477;-94
2022/01/07 10:57:46;;;;;;;;;2.00;0.33;;;;;-149.69;100.00;58464.25;6214270;22;45287;-94
2022/01/07 11:00:18;;;;;;;;;0.00;0.00;;;;;-149.69;100.00;58464.25;6214617;22;45405;-96
2022/01/07 11:02:45;;;;;;;;;1.00;1.00;;;;;-149.69;100.00;58464.25;6215157;22;47884;-96
2022/01/07 11:05:11;;;;;;;;;1.67;0.00;;;;;-149.69;100.00;58464.25;6216095;22;45680;-96
2022/01/07 11:07:40;;;;;;;;;0.00;0.00;;;;;-149.69;100.00;58464.25;6215749;22;45696;-96
2022/01/07 11:10:07;;;;;;;;;1.67;0.00;;;;;-149.69;100.00;58464.25;6213481;22;45377;-96
2022/01/07 11:12:34;;;;;;;;;1.00;1.00;;;;;-149.69;100.00;58464.25;6215774;22;47057;-96
2022/01/07 11:15:00;;;;;;;;;0.00;0.00;;;;;-149.69;100.00;58464.25;6212969;22;45291;-96
2022/01/07 11:17:27;;;;;;;;;0.00;0.00;;;;;-149.69;100.00;58464.25;6219753;22;45430;-96
2022/01/07 11:19:59;;;;;;;;;1.00;0.33;;;;;-149.69;100.00;58464.25;6213057;22;45574;-96